Time;durP1;ratioP1;P1;durP2;ratioP2;P2;SDS_P1;SDS_P2;PMS_P1;PMS_P2;Temp;Humidity;BMP_temperature;BMP_pressure;BME280_temperature;BME280_humidity;BME280_pressure;Samples;Min_cycle;Max_cycle;Signal;HPM_P1;HPM_P2
2021/01/17 00:00:20;;;;;;;38.92;18.75;;;-0.70;99.90;;;;;;5037448;28;20075;-76
2021/01/17 00:02:46;;;;;;;36.80;19.80;;;-0.70;99.90;;;;;;5024512;28;20033;-77
2021/01/17 00:05:13;;;;;;;39.65;18.08;;;-0.70;99.90;;;;;;5035908;28;20041;-76
2021/01/17 00:07:40;;;;;;;42.42;21.15;;;-0.60;99.90;;;;;;5024786;28;20041;-76
2021/01/17 00:10:07;;;;;;;38.50;18.90;;;-0.70;99.90;;;;;;5020065;28;20022;-76
2021/01/17 00:12:33;;;;;;;38.25;17.85;;;-0.70;99.90;;;;;;5015806;28;20396;-78
2021/01/17 00:14:58;;;;;;;38.05;18.75;;;-0.60;99.90;;;;;;5010409;28;20042;-76
2021/01/17 00:17:24;;;;;;;37.80;18.92;;;-0.60;99.90;;;;;;5022122;28;20041;-77
2021/01/17 00:19:50;;;;;;;37.70;18.75;;;-0.60;99.90;;;;;;5026393;28;20099;-75
2021/01/17 00:22:19;;;;;;;36.33;18.42;;;-0.60;99.90;;;;;;5022208;28;20489;-75
2021/01/17 00:24:45;;;;;;;34.85;16.90;;;-0.60;99.90;;;;;;5025250;28;20054;-75
2021/01/17 00:27:12;;;;;;;39.60;18.35;;;-0.60;99.90;;;;;;5037808;28;20474;-77
2021/01/17 00:29:38;;;;;;;35.60;18.20;;;-0.60;99.90;;;;;;5025324;28;20503;-75
2021/01/17 00:32:12;;;;;;;36.42;18.30;;;-0.60;99.90;;;;;;5025767;28;20068;-76
2021/01/17 00:34:39;;;;;;;35.33;17.10;;;-0.60;99.90;;;;;;5024524;28;20037;-75
2021/01/17 00:37:05;;;;;;;36.63;17.40;;;-0.60;99.90;;;;;;5022163;28;20237;-75
2021/01/17 00:39:30;;;;;;;35.05;17.40;;;-0.60;99.90;;;;;;5005680;28;20052;-75
2021/01/17 00:41:56;;;;;;;37.85;18.67;;;-0.60;99.90;;;;;;5003602;28;20040;-75
2021/01/17 00:44:22;;;;;;;36.00;17.77;;;-0.60;99.90;;;;;;5022290;28;20041;-74
2021/01/17 00:46:47;;;;;;;35.83;17.20;;;-0.60;99.90;;;;;;5016156;28;20147;-75
2021/01/17 00:49:13;;;;;;;36.42;18.15;;;-0.60;99.90;;;;;;5026904;28;20045;-76
2021/01/17 00:51:45;;;;;;;32.03;16.38;;;-0.50;99.90;;;;;;5022695;28;20049;-76
2021/01/17 00:54:12;;;;;;;32.85;16.38;;;-0.60;99.90;;;;;;5021588;28;20381;-77
2021/01/17 00:56:38;;;;;;;34.60;17.15;;;-0.20;99.90;;;;;;5019512;28;20366;-76
2021/01/17 00:59:09;;;;;;;35.50;17.33;;;-0.50;99.90;;;;;;5012523;28;20133;-76
2021/01/17 01:01:43;;;;;;;34.03;16.73;;;-0.50;99.90;;;;;;5024271;28;20049;-76
2021/01/17 01:04:11;;;;;;;32.42;16.27;;;-0.50;99.90;;;;;;5015950;28;20227;-76
2021/01/17 01:06:38;;;;;;;33.20;17.15;;;-0.50;99.90;;;;;;5024182;28;20041;-75
2021/01/17 01:09:12;;;;;;;33.42;16.38;;;-0.50;99.90;;;;;;5018587;28;20044;-75
2021/01/17 01:11:38;;;;;;;30.52;15.68;;;-0.50;99.90;;;;;;5024255;28;20036;-76
2021/01/17 01:14:05;;;;;;;32.22;15.75;;;-0.50;99.90;;;;;;5017297;28;20084;-76
2021/01/17 01:16:31;;;;;;;34.75;16.92;;;-0.40;99.90;;;;;;5036365;28;20132;-75
2021/01/17 01:18:57;;;;;;;28.00;14.93;;;-0.40;99.90;;;;;;5025066;28;20124;-75
2021/01/17 01:21:27;;;;;;;31.45;15.57;;;-0.40;99.90;;;;;;5042273;28;20033;-75
2021/01/17 01:23:53;;;;;;;29.83;16.77;;;-0.40;99.90;;;;;;5024190;28;20025;-75
2021/01/17 01:26:21;;;;;;;32.95;16.73;;;-0.40;99.90;;;;;;5026627;28;20037;-77
2021/01/17 01:28:56;;;;;;;31.92;16.15;;;-0.40;99.90;;;;;;5020691;28;20179;-76
2021/01/17 01:31:23;;;;;;;28.73;15.57;;;-0.40;99.90;;;;;;5019808;28;20080;-77
2021/01/17 01:33:50;;;;;;;34.17;16.48;;;-0.40;99.90;;;;;;5016632;28;20034;-74
2021/01/17 01:36:33;;;;;;;27.77;14.70;;;-0.40;99.90;;;;;;5021018;28;20026;-76
2021/01/17 01:38:59;;;;;;;31.23;15.60;;;-0.40;99.90;;;;;;5021576;28;20030;-74
2021/01/17 01:41:29;;;;;;;31.55;15.77;;;-0.40;99.90;;;;;;5018302;28;20617;-77
2021/01/17 01:43:55;;;;;;;32.43;16.70;;;-0.30;99.90;;;;;;5020529;28;20395;-74
2021/01/17 01:46:23;;;;;;;31.40;16.08;;;-0.30;99.90;;;;;;5026541;28;20030;-75
2021/01/17 01:48:50;;;;;;;32.38;16.48;;;-0.30;99.90;;;;;;5024405;28;20046;-75
2021/01/17 01:51:17;;;;;;;31.55;16.08;;;-0.30;99.90;;;;;;5022408;28;20032;-76
2021/01/17 01:53:44;;;;;;;30.15;15.18;;;-0.30;99.90;;;;;;5038398;28;20180;-77
2021/01/17 01:56:12;;;;;;;34.15;17.63;;;-0.30;99.90;;;;;;5024193;28;20060;-74
2021/01/17 01:58:38;;;;;;;32.92;16.88;;;-0.30;99.90;;;;;;5028502;28;20533;-75
2021/01/17 02:01:07;;;;;;;31.02;16.33;;;-0.30;99.90;;;;;;5020534;28;20033;-75
2021/01/17 02:03:33;;;;;;;31.50;15.75;;;-0.30;99.90;;;;;;5019607;28;20416;-75
2021/01/17 02:06:00;;;;;;;32.72;16.88;;;-0.30;99.90;;;;;;5026659;28;20509;-75
2021/01/17 02:08:47;;;;;;;29.13;15.65;;;-0.30;99.90;;;;;;5023123;28;20061;-75
2021/01/17 02:11:46;;;;;;;28.63;14.90;;;-0.30;99.90;;;;;;5021704;28;20037;-75
2021/01/17 02:14:55;;;;;;;30.90;15.52;;;-0.30;99.90;;;;;;5027100;28;20560;-75
2021/01/17 02:17:25;;;;;;;32.38;16.23;;;-0.40;99.90;;;;;;5040032;28;20057;-79
2021/01/17 02:20:11;;;;;;;32.40;16.75;;;-0.40;99.90;;;;;;5023554;28;20049;-74
2021/01/17 02:22:48;;;;;;;29.90;15.48;;;-0.40;99.90;;;;;;5026375;28;20041;-77
2021/01/17 02:25:15;;;;;;;34.75;16.35;;;-0.30;99.90;;;;;;5021479;28;20029;-74
2021/01/17 02:27:43;;;;;;;31.63;16.65;;;-0.30;99.90;;;;;;5027767;28;20056;-77
2021/01/17 02:30:11;;;;;;;32.60;15.63;;;-0.30;99.90;;;;;;5022603;28;20021;-75
2021/01/17 02:32:43;;;;;;;32.72;17.23;;;-0.30;99.90;;;;;;5025817;28;20120;-76
2021/01/17 02:35:11;;;;;;;30.05;16.38;;;-0.30;99.90;;;;;;5023476;28;20616;-74
2021/01/17 02:37:45;;;;;;;30.80;16.05;;;-0.40;99.90;;;;;;5028452;28;20033;-76
2021/01/17 02:40:38;;;;;;;29.45;15.80;;;-0.40;99.90;;;;;;5027934;28;20124;-75
2021/01/17 02:43:06;;;;;;;30.43;15.27;;;-0.40;99.90;;;;;;5024902;28;20649;-74
2021/01/17 02:45:33;;;;;;;31.15;15.52;;;-0.40;99.90;;;;;;5026042;28;20045;-75
2021/01/17 02:47:58;;;;;;;32.70;16.52;;;-0.40;99.90;;;;;;5022347;28;20025;-76
2021/01/17 02:50:24;;;;;;;30.45;15.70;;;-0.40;99.90;;;;;;5022373;28;20103;-76
2021/01/17 02:53:04;;;;;;;29.23;15.27;;;-0.40;99.90;;;;;;5025021;28;20035;-77
2021/01/17 02:55:35;;;;;;;28.70;14.77;;;-0.30;99.90;;;;;;5021756;28;20051;-75
2021/01/17 02:58:04;;;;;;;26.75;14.70;;;-0.30;99.90;;;;;;5027464;28;20124;-76
2021/01/17 03:00:33;;;;;;;31.17;15.60;;;-0.30;99.90;;;;;;5025701;28;20124;-75
2021/01/17 03:03:00;;;;;;;30.05;15.32;;;-0.30;99.90;;;;;;5020338;28;20127;-75
2021/01/17 03:05:26;;;;;;;27.42;14.80;;;-0.30;99.90;;;;;;5025094;28;20045;-75
2021/01/17 03:07:54;;;;;;;29.13;14.93;;;-0.20;99.90;;;;;;5022572;28;20132;-76
2021/01/17 03:10:24;;;;;;;29.80;15.38;;;-0.20;99.90;;;;;;5025415;28;20036;-75
2021/01/17 03:12:51;;;;;;;27.83;15.35;;;-0.10;99.90;;;;;;5027195;28;20491;-75
2021/01/17 03:15:17;;;;;;;27.42;14.57;;;-0.20;99.90;;;;;;5020790;28;20068;-76
2021/01/17 03:17:44;;;;;;;30.00;15.25;;;-0.20;99.90;;;;;;5029714;28;20402;-76
2021/01/17 03:20:10;;;;;;;30.35;14.52;;;-0.20;99.90;;;;;;5021251;28;20037;-75
2021/01/17 03:22:36;;;;;;;27.48;15.07;;;-0.20;99.90;;;;;;5023263;28;20136;-75
2021/01/17 03:25:03;;;;;;;28.60;15.57;;;-0.20;99.90;;;;;;5024415;28;20046;-75
2021/01/17 03:27:29;;;;;;;31.30;15.15;;;-0.20;99.90;;;;;;5024671;28;20053;-75
2021/01/17 03:29:55;;;;;;;28.08;14.88;;;-0.20;99.90;;;;;;5020663;28;20072;-75
2021/01/17 03:32:20;;;;;;;28.38;14.98;;;-0.20;99.90;;;;;;5025833;28;20041;-75
2021/01/17 03:34:50;;;;;;;31.30;15.52;;;-0.20;99.90;;;;;;5024927;28;20037;-75
2021/01/17 03:37:16;;;;;;;27.88;14.43;;;-0.20;99.90;;;;;;5025064;28;20450;-75
2021/01/17 03:39:43;;;;;;;31.02;15.80;;;-0.20;99.90;;;;;;5024905;28;20049;-75
2021/01/17 03:42:10;;;;;;;28.63;15.65;;;-0.20;99.90;;;;;;5024818;28;20043;-76
2021/01/17 03:44:37;;;;;;;27.25;14.80;;;-0.20;99.90;;;;;;5023590;28;20041;-75
2021/01/17 03:47:03;;;;;;;29.92;15.88;;;-0.10;99.90;;;;;;5022771;28;20491;-76
2021/01/17 03:49:29;;;;;;;28.00;15.95;;;0.00;99.90;;;;;;5023475;28;20111;-76
2021/01/17 03:51:55;;;;;;;31.10;15.35;;;0.00;99.90;;;;;;5024288;28;20430;-76
2021/01/17 03:54:20;;;;;;;29.67;15.35;;;0.00;99.90;;;;;;5021138;28;20351;-76
2021/01/17 03:56:46;;;;;;;28.08;15.07;;;0.00;99.90;;;;;;5024755;28;20120;-76
2021/01/17 03:59:15;;;;;;;27.92;14.85;;;0.10;99.90;;;;;;5001500;28;20135;-75
2021/01/17 04:01:40;;;;;;;28.48;15.43;;;0.00;99.90;;;;;;5023952;28;20026;-76
2021/01/17 04:04:06;;;;;;;27.17;14.95;;;0.10;99.90;;;;;;5021805;28;20071;-75
2021/01/17 04:06:32;;;;;;;27.45;13.57;;;0.10;99.90;;;;;;5002484;28;20042;-75
2021/01/17 04:08:57;;;;;;;27.88;14.20;;;0.10;99.90;;;;;;5024137;28;20021;-75
2021/01/17 04:11:23;;;;;;;26.80;14.15;;;0.20;99.90;;;;;;5017141;28;20080;-76
2021/01/17 04:13:49;;;;;;;26.58;14.07;;;0.20;99.90;;;;;;5021161;28;20045;-75
2021/01/17 04:16:15;;;;;;;26.95;14.63;;;0.20;99.90;;;;;;5021815;28;20083;-76
2021/01/17 04:18:41;;;;;;;31.55;14.50;;;0.20;99.90;;;;;;5026129;28;20092;-76
2021/01/17 04:21:08;;;;;;;30.45;14.90;;;0.20;99.90;;;;;;5024006;28;20034;-76
2021/01/17 04:23:33;;;;;;;29.25;14.50;;;0.20;99.90;;;;;;5006182;28;20038;-75
2021/01/17 04:25:59;;;;;;;26.15;13.88;;;0.20;99.90;;;;;;5044137;28;20070;-75
2021/01/17 04:28:24;;;;;;;28.02;14.43;;;0.30;99.90;;;;;;5020529;28;20037;-75
2021/01/17 04:30:50;;;;;;;27.65;15.00;;;0.30;99.90;;;;;;5022330;28;20038;-76
2021/01/17 04:33:19;;;;;;;25.90;13.90;;;0.20;99.90;;;;;;5023048;28;20140;-75
2021/01/17 04:35:47;;;;;;;29.95;15.20;;;0.20;99.90;;;;;;5022622;28;20045;-76
2021/01/17 04:38:12;;;;;;;29.15;14.70;;;0.10;99.90;;;;;;5024645;28;20041;-75
2021/01/17 04:40:38;;;;;;;28.67;14.68;;;0.10;99.90;;;;;;5018790;28;20050;-75
2021/01/17 04:43:38;;;;;;;25.73;13.82;;;0.10;99.90;;;;;;5021287;28;20056;-75
2021/01/17 04:46:04;;;;;;;27.52;13.43;;;0.20;99.90;;;;;;5020252;28;20424;-75
2021/01/17 04:48:31;;;;;;;30.25;13.65;;;0.50;99.90;;;;;;5034104;28;20033;-78
2021/01/17 04:51:01;;;;;;;32.42;14.32;;;0.20;99.90;;;;;;5020467;28;20126;-75
2021/01/17 04:53:37;;;;;;;30.20;15.20;;;0.20;99.90;;;;;;5021140;28;20079;-75
2021/01/17 04:56:27;;;;;;;31.60;14.85;;;0.20;99.90;;;;;;5002581;28;20045;-75
2021/01/17 04:59:10;;;;;;;29.45;14.93;;;0.30;99.90;;;;;;5024366;28;20566;-76
2021/01/17 05:01:47;;;;;;;31.92;14.02;;;0.30;99.90;;;;;;5021245;28;20085;-76
2021/01/17 05:04:41;;;;;;;36.20;15.48;;;0.30;99.90;;;;;;5020202;28;20037;-76
2021/01/17 05:07:21;;;;;;;29.08;14.95;;;0.30;99.90;;;;;;5020229;28;20047;-76
2021/01/17 05:09:55;;;;;;;29.90;14.57;;;0.30;99.90;;;;;;5020863;28;20423;-75
2021/01/17 05:12:30;;;;;;;30.67;14.75;;;0.30;99.90;;;;;;5034574;28;20324;-75
2021/01/17 05:14:58;;;;;;;35.83;15.18;;;0.30;99.90;;;;;;5024874;28;20038;-75
2021/01/17 05:17:27;;;;;;;34.75;15.00;;;0.30;99.90;;;;;;5030767;28;20042;-75
2021/01/17 05:19:52;;;;;;;33.20;15.60;;;0.30;99.90;;;;;;5023706;28;20111;-75
2021/01/17 05:22:20;;;;;;;33.05;15.13;;;0.30;99.90;;;;;;5022480;28;20076;-76
2021/01/17 05:24:51;;;;;;;29.27;14.55;;;0.30;99.90;;;;;;5021143;28;20083;-76
2021/01/17 05:27:17;;;;;;;32.60;14.88;;;0.30;99.90;;;;;;5019056;28;20040;-77
2021/01/17 05:29:43;;;;;;;36.15;16.58;;;0.30;99.90;;;;;;5021909;28;20041;-76
2021/01/17 05:32:08;;;;;;;32.72;15.65;;;0.30;99.90;;;;;;5020767;28;20037;-75
2021/01/17 05:34:35;;;;;;;37.53;17.52;;;0.30;99.90;;;;;;5036229;28;20506;-76
2021/01/17 05:37:27;;;;;;;31.27;15.25;;;0.30;99.90;;;;;;5021255;28;20407;-75
2021/01/17 05:39:55;;;;;;;29.33;15.10;;;0.40;99.90;;;;;;5026126;28;20046;-76
2021/01/17 05:42:43;;;;;;;32.22;14.63;;;0.30;99.90;;;;;;5022715;28;20037;-75
2021/01/17 05:45:12;;;;;;;32.83;14.55;;;0.30;99.90;;;;;;5034712;28;20049;-75
2021/01/17 05:47:38;;;;;;;30.80;14.32;;;0.40;99.90;;;;;;5025694;28;20380;-75
2021/01/17 05:50:09;;;;;;;33.63;15.35;;;0.40;99.90;;;;;;5017680;28;20045;-75
2021/01/17 05:52:36;;;;;;;31.77;16.15;;;0.40;99.90;;;;;;5021838;28;20045;-75
2021/01/17 05:55:02;;;;;;;29.02;14.27;;;0.40;99.90;;;;;;5019956;28;20033;-76
2021/01/17 05:57:30;;;;;;;29.10;13.90;;;0.40;99.90;;;;;;5016800;28;20537;-76
2021/01/17 05:59:56;;;;;;;32.67;14.38;;;0.40;99.90;;;;;;5037533;28;20041;-76
2021/01/17 06:02:24;;;;;;;29.95;15.57;;;0.50;99.90;;;;;;5014078;28;20055;-76
2021/01/17 06:04:57;;;;;;;28.83;13.98;;;0.50;99.90;;;;;;5023758;28;20045;-75
2021/01/17 06:07:28;;;;;;;30.80;14.20;;;0.40;99.90;;;;;;5022988;28;20057;-75
2021/01/17 06:09:56;;;;;;;30.92;14.80;;;0.50;99.90;;;;;;5017600;28;20457;-76
2021/01/17 06:12:38;;;;;;;31.30;14.95;;;0.50;99.90;;;;;;5019231;28;20030;-75
2021/01/17 06:15:10;;;;;;;33.25;15.18;;;0.40;99.90;;;;;;5033854;28;20393;-75
2021/01/17 06:17:39;;;;;;;30.80;14.55;;;0.50;99.90;;;;;;5013734;28;22386;-77
2021/01/17 06:20:09;;;;;;;34.92;16.45;;;0.50;99.90;;;;;;5016398;28;20499;-75
2021/01/17 06:22:36;;;;;;;29.63;14.43;;;0.40;99.90;;;;;;5014779;28;20060;-75
2021/01/17 06:25:04;;;;;;;32.15;15.10;;;0.50;99.90;;;;;;5016732;28;20375;-77
2021/01/17 06:27:31;;;;;;;30.70;13.57;;;0.50;99.90;;;;;;5015691;28;20051;-76
2021/01/17 06:29:57;;;;;;;32.55;15.05;;;0.50;99.90;;;;;;5016216;28;20415;-75
2021/01/17 06:32:25;;;;;;;30.05;14.00;;;0.50;99.90;;;;;;5023056;28;20132;-76
2021/01/17 06:34:53;;;;;;;29.10;13.57;;;0.50;99.90;;;;;;5024773;28;20033;-76
2021/01/17 06:37:25;;;;;;;29.65;14.20;;;0.60;99.90;;;;;;5021220;28;21883;-76
2021/01/17 06:40:00;;;;;;;26.80;13.77;;;0.60;99.90;;;;;;5016435;28;20037;-75
2021/01/17 06:42:25;;;;;;;28.00;13.27;;;0.60;99.90;;;;;;5008522;28;20056;-75
2021/01/17 06:44:53;;;;;;;29.02;12.45;;;0.60;99.90;;;;;;5025852;28;20160;-75
2021/01/17 06:47:18;;;;;;;23.77;12.70;;;0.60;99.90;;;;;;5023928;28;20120;-75
2021/01/17 06:49:45;;;;;;;26.30;12.63;;;0.60;99.90;;;;;;5029730;28;20144;-75
2021/01/17 06:52:11;;;;;;;26.73;12.88;;;0.60;99.90;;;;;;5025504;28;20052;-75
2021/01/17 06:54:42;;;;;;;26.38;12.90;;;0.60;99.90;;;;;;5025726;28;20036;-77
2021/01/17 06:57:08;;;;;;;;;;;0.60;99.90;;;;;;5029281;28;20398;-76
2021/01/17 06:59:42;;;;;;;24.60;11.60;;;0.70;99.90;;;;;;5023349;28;20083;-76
2021/01/17 07:02:14;;;;;;;28.17;12.80;;;0.70;99.90;;;;;;5024079;28;20041;-76
2021/01/17 07:04:42;;;;;;;27.95;12.65;;;0.70;99.90;;;;;;5020482;28;20607;-76
2021/01/17 07:07:10;;;;;;;27.75;12.70;;;0.70;99.90;;;;;;5022597;28;20477;-75
2021/01/17 07:09:39;;;;;;;27.23;12.75;;;0.70;99.90;;;;;;5021224;28;20029;-76
2021/01/17 07:12:19;;;;;;;24.05;12.73;;;0.70;99.90;;;;;;5029997;28;20034;-76
2021/01/17 07:15:04;;;;;;;24.85;12.52;;;0.70;99.90;;;;;;5024770;28;20767;-76
2021/01/17 07:17:39;;;;;;;24.55;12.20;;;0.80;99.90;;;;;;5023526;28;20466;-76
2021/01/17 07:20:13;;;;;;;25.52;12.98;;;0.80;99.90;;;;;;5021061;28;20115;-76
2021/01/17 07:22:42;;;;;;;25.05;12.45;;;0.80;99.90;;;;;;5017151;28;20120;-75
2021/01/17 07:25:11;;;;;;;23.77;12.35;;;0.80;99.90;;;;;;5023133;28;20423;-76
2021/01/17 07:28:04;;;;;;;26.10;12.38;;;0.80;99.90;;;;;;5023134;28;20038;-75
2021/01/17 07:30:36;;;;;;;23.83;12.18;;;0.90;99.90;;;;;;5032906;28;20124;-76
2021/01/17 07:33:04;;;;;;;26.20;13.50;;;0.90;99.90;;;;;;5015747;28;20026;-75
2021/01/17 07:35:40;;;;;;;25.17;12.95;;;0.90;99.90;;;;;;5021238;28;20045;-76
2021/01/17 07:38:11;;;;;;;23.73;11.98;;;0.90;99.90;;;;;;5021042;28;20076;-77
2021/01/17 07:40:55;;;;;;;25.23;12.65;;;0.90;99.90;;;;;;5018001;28;20041;-76
2021/01/17 07:43:41;;;;;;;21.58;11.70;;;1.00;99.90;;;;;;5011468;28;20073;-75
2021/01/17 07:46:09;;;;;;;24.83;11.75;;;1.00;99.90;;;;;;5016349;28;20037;-76
2021/01/17 07:48:36;;;;;;;24.58;13.55;;;1.00;99.90;;;;;;5014406;28;20037;-76
2021/01/17 07:51:04;;;;;;;20.35;11.13;;;1.00;99.90;;;;;;5014081;28;21349;-76
2021/01/17 07:53:36;;;;;;;22.77;11.40;;;1.00;99.90;;;;;;5005387;28;20580;-77
2021/01/17 07:56:34;;;;;;;23.60;11.02;;;1.00;99.90;;;;;;5026703;28;20044;-76
2021/01/17 07:59:07;;;;;;;21.00;10.98;;;1.00;99.90;;;;;;5010235;28;20116;-76
2021/01/17 08:01:38;;;;;;;23.77;12.23;;;1.00;99.90;;;;;;5015761;28;20122;-76
2021/01/17 08:04:04;;;;;;;27.27;12.52;;;1.00;99.90;;;;;;5013813;28;20084;-75
2021/01/17 08:06:35;;;;;;;25.30;12.60;;;1.00;99.90;;;;;;5015946;28;20527;-76
2021/01/17 08:09:09;;;;;;;22.65;12.15;;;1.00;99.90;;;;;;5029046;28;20506;-76
2021/01/17 08:11:55;;;;;;;26.95;12.82;;;1.00;99.90;;;;;;5017729;28;20045;-75
2021/01/17 08:14:32;;;;;;;23.27;11.48;;;1.00;99.90;;;;;;5018947;28;20064;-75
2021/01/17 08:17:06;;;;;;;24.15;12.38;;;1.10;99.90;;;;;;5019773;28;20511;-76
2021/01/17 08:19:54;;;;;;;24.08;12.38;;;1.10;99.90;;;;;;5016587;28;20040;-75
2021/01/17 08:22:22;;;;;;;28.50;14.00;;;1.10;99.90;;;;;;5012702;28;20041;-74
2021/01/17 08:24:51;;;;;;;34.78;16.13;;;1.00;99.90;;;;;;5019593;28;20022;-75
2021/01/17 08:27:43;;;;;;;33.30;15.57;;;1.00;99.90;;;;;;5029479;28;20033;-75
2021/01/17 08:30:10;;;;;;;34.35;16.30;;;0.90;99.90;;;;;;5011986;28;20124;-76
2021/01/17 08:32:40;;;;;;;35.08;14.95;;;1.00;99.90;;;;;;5012208;28;20079;-75
2021/01/17 08:35:15;;;;;;;31.65;15.20;;;1.00;99.90;;;;;;5016517;28;20021;-75
2021/01/17 08:37:42;;;;;;;32.70;15.85;;;1.00;99.90;;;;;;5019607;28;20045;-75
2021/01/17 08:40:08;;;;;;;31.33;14.93;;;1.10;99.90;;;;;;5016587;28;20038;-76
2021/01/17 08:42:37;;;;;;;27.77;14.50;;;1.10;99.90;;;;;;5020344;28;20064;-78
2021/01/17 08:45:24;;;;;;;24.98;13.88;;;1.20;99.90;;;;;;5022645;28;20131;-76
2021/01/17 08:47:55;;;;;;;30.85;15.75;;;1.20;99.90;;;;;;5016075;28;20538;-77
2021/01/17 08:50:38;;;;;;;30.95;15.02;;;1.20;99.90;;;;;;5016571;28;20116;-76
2021/01/17 08:53:13;;;;;;;26.42;13.75;;;1.20;99.90;;;;;;5012554;28;20113;-76
2021/01/17 08:55:44;;;;;;;29.35;15.38;;;1.20;99.90;;;;;;5014868;28;20115;-76
2021/01/17 08:58:14;;;;;;;29.73;15.63;;;1.20;99.90;;;;;;5017718;28;20026;-75
2021/01/17 09:01:02;;;;;;;29.48;15.02;;;1.10;99.90;;;;;;5040234;28;20132;-77
2021/01/17 09:03:33;;;;;;;30.30;15.30;;;1.10;99.90;;;;;;5024208;28;20443;-76
2021/01/17 09:06:04;;;;;;;27.52;14.52;;;1.10;99.90;;;;;;5021282;28;20466;-75
2021/01/17 09:08:31;;;;;;;;;;;1.10;99.90;;;;;;5030082;28;20414;-75
2021/01/17 09:10:57;;;;;;;32.00;16.00;;;1.10;99.90;;;;;;5024311;28;20002;-76
2021/01/17 09:13:29;;;;;;;28.42;15.05;;;1.20;99.90;;;;;;5013521;28;20081;-77
2021/01/17 09:16:02;;;;;;;31.10;15.73;;;1.20;99.90;;;;;;5003664;28;20033;-76
2021/01/17 09:18:33;;;;;;;34.53;16.40;;;1.20;99.90;;;;;;5009527;28;20695;-75
2021/01/17 09:21:00;;;;;;;36.63;16.45;;;1.20;99.90;;;;;;5014840;28;20264;-75
2021/01/17 09:23:26;;;;;;;29.45;15.90;;;1.20;99.90;;;;;;5016164;28;20038;-75
2021/01/17 09:26:00;;;;;;;31.42;16.95;;;1.30;99.90;;;;;;5016872;28;20059;-76
2021/01/17 09:28:27;;;;;;;31.80;15.55;;;1.30;99.90;;;;;;5012276;28;20462;-76
2021/01/17 09:30:54;;;;;;;32.80;16.98;;;1.40;99.90;;;;;;5017352;28;20029;-77
2021/01/17 09:33:21;;;;;;;30.60;16.52;;;1.40;99.90;;;;;;5015915;28;20040;-77
2021/01/17 09:35:48;;;;;;;34.80;16.30;;;1.50;99.90;;;;;;5019400;28;20621;-76
2021/01/17 09:38:16;;;;;;;33.28;16.20;;;1.50;99.90;;;;;;5016841;28;20041;-76
2021/01/17 09:40:43;;;;;;;31.45;15.32;;;1.60;99.90;;;;;;5017129;28;20128;-75
2021/01/17 09:43:09;;;;;;;29.98;15.75;;;1.60;99.90;;;;;;5017505;28;20029;-74
2021/01/17 09:45:35;;;;;;;31.60;15.82;;;1.60;99.90;;;;;;5006630;28;20048;-75
2021/01/17 09:48:00;;;;;;;35.78;16.88;;;1.70;99.90;;;;;;5012635;28;20064;-75
2021/01/17 09:50:36;;;;;;;30.83;15.48;;;1.70;99.90;;;;;;4993680;28;20073;-76
2021/01/17 09:53:08;;;;;;;29.30;15.52;;;1.80;99.90;;;;;;5009460;28;20387;-75
2021/01/17 09:55:38;;;;;;;32.22;16.58;;;1.80;99.90;;;;;;5012563;28;20036;-78
2021/01/17 09:58:14;;;;;;;33.28;15.50;;;1.90;99.90;;;;;;5014292;28;20037;-75
2021/01/17 10:00:41;;;;;;;30.55;15.60;;;1.80;99.90;;;;;;5018242;28;20049;-75
2021/01/17 10:03:16;;;;;;;38.30;19.63;;;2.00;99.90;;;;;;5017125;28;20033;-76
2021/01/17 10:05:44;;;;;;;41.45;20.52;;;2.10;99.90;;;;;;5023500;28;20160;-75
2021/01/17 10:08:13;;;;;;;47.80;22.55;;;2.20;99.90;;;;;;5020257;28;20724;-76
2021/01/17 10:10:46;;;;;;;44.03;21.85;;;2.20;99.90;;;;;;5019970;28;20041;-75
2021/01/17 10:13:12;;;;;;;71.10;32.80;;;2.20;99.90;;;;;;4994937;28;20049;-77
2021/01/17 10:15:40;;;;;;;32.58;16.52;;;2.10;99.90;;;;;;5020067;28;20598;-76
2021/01/17 10:18:06;;;;;;;35.00;18.42;;;2.10;99.90;;;;;;5018645;28;20038;-75
2021/01/17 10:20:33;;;;;;;45.60;20.88;;;2.10;99.90;;;;;;5028040;28;20073;-76
2021/01/17 10:23:03;;;;;;;37.50;19.27;;;2.10;99.90;;;;;;5020477;28;20040;-75
2021/01/17 10:25:30;;;;;;;33.53;16.50;;;2.10;99.90;;;;;;5023862;28;20025;-76
2021/01/17 10:28:01;;;;;;;29.40;14.73;;;2.20;99.90;;;;;;5018536;28;20122;-75
2021/01/17 10:30:29;;;;;;;29.50;16.27;;;2.20;99.90;;;;;;5025016;28;20033;-76
2021/01/17 10:33:05;;;;;;;33.42;17.58;;;2.20;99.90;;;;;;5017825;28;20107;-76
2021/01/17 10:35:32;;;;;;;32.28;17.08;;;2.10;99.90;;;;;;5020229;28;20057;-75
2021/01/17 10:38:02;;;;;;;33.75;17.48;;;2.10;99.90;;;;;;5024104;28;20048;-75
2021/01/17 10:40:28;;;;;;;32.17;16.80;;;2.10;99.90;;;;;;5020512;28;20099;-76
2021/01/17 10:42:57;;;;;;;36.97;17.65;;;2.00;99.90;;;;;;5007916;28;20053;-76
2021/01/17 10:45:25;;;;;;;34.17;17.92;;;2.10;99.90;;;;;;5017690;28;20041;-76
2021/01/17 10:48:05;;;;;;;33.45;17.33;;;2.10;99.90;;;;;;5022021;28;21490;-77
2021/01/17 10:50:36;;;;;;;35.20;17.30;;;2.10;99.90;;;;;;5040812;28;20049;-76
2021/01/17 10:53:35;;;;;;;35.25;18.85;;;2.10;99.90;;;;;;5012308;28;20461;-76
2021/01/17 10:56:01;;;;;;;33.45;17.02;;;2.10;99.90;;;;;;5008390;28;20102;-76
2021/01/17 10:58:33;;;;;;;38.10;17.58;;;2.20;99.90;;;;;;5011603;28;20060;-77
2021/01/17 11:01:00;;;;;;;36.60;16.70;;;2.10;99.90;;;;;;5010935;28;20083;-75
2021/01/17 11:03:40;;;;;;;33.63;16.70;;;2.20;99.90;;;;;;5013864;28;20458;-76
2021/01/17 11:06:06;;;;;;;29.65;16.38;;;2.20;99.90;;;;;;5019339;28;20659;-76
2021/01/17 11:08:44;;;;;;;35.25;17.48;;;2.30;99.90;;;;;;5015689;28;20117;-76
2021/01/17 11:11:11;;;;;;;31.10;15.98;;;2.40;99.90;;;;;;5018069;28;20044;-75
2021/01/17 11:13:37;;;;;;;29.45;16.17;;;3.00;99.90;;;;;;5015571;28;20483;-75
2021/01/17 11:16:03;;;;;;;28.05;15.20;;;2.40;99.90;;;;;;5017736;28;20044;-76
2021/01/17 11:18:30;;;;;;;31.40;16.75;;;2.50;99.90;;;;;;5017662;28;20441;-76
2021/01/17 11:21:01;;;;;;;32.25;16.58;;;2.50;99.90;;;;;;5018577;28;20049;-75
2021/01/17 11:23:31;;;;;;;31.83;16.38;;;2.60;99.90;;;;;;5016011;28;20041;-76
2021/01/17 11:25:59;;;;;;;32.72;16.80;;;2.50;99.90;;;;;;5003444;28;20161;-76
2021/01/17 11:28:28;;;;;;;25.35;13.77;;;2.60;99.90;;;;;;5011114;28;20129;-77
2021/01/17 11:30:56;;;;;;;30.63;15.20;;;2.60;99.90;;;;;;5013446;28;20387;-76
2021/01/17 11:33:27;;;;;;;32.55;16.45;;;2.60;99.90;;;;;;5031353;28;20061;-76
2021/01/17 11:36:00;;;;;;;32.97;16.70;;;2.70;99.90;;;;;;5011151;28;20140;-76
2021/01/17 11:38:48;;;;;;;22.92;12.75;;;2.60;99.90;;;;;;5015913;28;20052;-76
2021/01/17 11:41:15;;;;;;;24.75;11.65;;;2.60;99.90;;;;;;5020613;28;20168;-75
2021/01/17 11:43:42;;;;;;;22.08;11.88;;;2.60;99.90;;;;;;5017312;28;20041;-76
2021/01/17 11:46:10;;;;;;;26.13;12.07;;;2.60;99.90;;;;;;5017778;28;20045;-75
2021/01/17 11:48:36;;;;;;;21.27;12.15;;;2.80;99.90;;;;;;5018947;28;20514;-77
2021/01/17 11:51:04;;;;;;;23.58;12.75;;;2.70;99.90;;;;;;5018183;28;20037;-74
2021/01/17 11:53:31;;;;;;;24.95;13.30;;;2.80;99.90;;;;;;5022342;28;20049;-76
2021/01/17 11:55:56;;;;;;;24.30;12.93;;;2.80;99.90;;;;;;5015321;28;20089;-76
2021/01/17 11:58:25;;;;;;;23.05;12.13;;;2.80;99.90;;;;;;5006961;28;20047;-77
2021/01/17 12:00:58;;;;;;;25.17;13.60;;;2.80;99.90;;;;;;5023632;28;20022;-75
2021/01/17 12:03:33;;;;;;;24.38;13.10;;;2.80;99.90;;;;;;5017470;28;20045;-75
2021/01/17 12:06:06;;;;;;;26.70;14.52;;;2.80;99.90;;;;;;5016467;28;20098;-76
2021/01/17 12:08:50;;;;;;;24.90;13.98;;;2.90;99.90;;;;;;5015888;28;20033;-77
2021/01/17 12:11:46;;;;;;;33.05;16.13;;;3.00;99.90;;;;;;5011334;28;20248;-77
2021/01/17 12:14:34;;;;;;;29.95;14.15;;;3.00;99.90;;;;;;5003615;28;20443;-75
2021/01/17 12:16:59;;;;;;;34.10;18.75;;;3.00;99.90;;;;;;5013283;28;20100;-76
2021/01/17 12:19:27;;;;;;;25.58;14.98;;;2.90;99.90;;;;;;5017905;28;20037;-76
2021/01/17 12:22:00;;;;;;;27.08;15.07;;;2.90;99.90;;;;;;5016233;28;20048;-77
2021/01/17 12:24:27;;;;;;;23.50;13.50;;;2.90;99.90;;;;;;5007700;28;20070;-76
2021/01/17 12:26:54;;;;;;;20.42;12.32;;;2.90;99.90;;;;;;5015663;28;20056;-76
2021/01/17 12:29:20;;;;;;;19.45;12.00;;;3.00;99.90;;;;;;5014539;28;20344;-76
2021/01/17 12:31:47;;;;;;;22.30;12.10;;;3.10;99.90;;;;;;5012545;28;20965;-77
2021/01/17 12:34:13;;;;;;;19.75;11.52;;;3.10;99.90;;;;;;5010744;28;20163;-77
2021/01/17 12:36:41;;;;;;;17.70;11.00;;;3.10;99.90;;;;;;5008806;28;20064;-75
2021/01/17 12:39:09;;;;;;;19.58;12.02;;;3.10;99.90;;;;;;5015974;28;20467;-75
2021/01/17 12:41:40;;;;;;;20.52;11.93;;;3.10;99.90;;;;;;5018216;28;20479;-76
2021/01/17 12:44:06;;;;;;;17.30;10.30;;;3.10;99.90;;;;;;5014992;28;20116;-76
2021/01/17 12:46:31;;;;;;;16.58;10.30;;;3.10;99.90;;;;;;5011507;28;20044;-75
2021/01/17 12:48:57;;;;;;;17.73;10.10;;;3.10;99.90;;;;;;5006871;28;20043;-75
2021/01/17 12:51:23;;;;;;;16.83;9.38;;;3.10;99.90;;;;;;4993951;28;20056;-76